sensor_id;sensor_type;location;lat;lon;timestamp;pressure;altitude;pressure_sealevel;temperature;humidity
35806;BME280;21925;44.608;11.580;2022-12-18T00:03:44;102730.78;;;12.33;84.85
35806;BME280;21925;44.608;11.580;2022-12-18T00:06:11;102782.09;;;12.51;86.19
35806;BME280;21925;44.608;11.580;2022-12-18T00:08:37;102785.97;;;12.50;86.27
35806;BME280;21925;44.608;11.580;2022-12-18T00:11:05;102786.81;;;12.37;86.39
35806;BME280;21925;44.608;11.580;2022-12-18T00:13:31;102706.06;;;11.85;88.47
35806;BME280;21925;44.608;11.580;2022-12-18T00:16:04;102760.00;;;11.81;87.82
35806;BME280;21925;44.608;11.580;2022-12-18T00:18:31;102774.16;;;12.01;87.64
35806;BME280;21925;44.608;11.580;2022-12-18T00:21:00;102785.22;;;12.23;88.72
35806;BME280;21925;44.608;11.580;2022-12-18T00:23:27;102795.91;;;12.24;86.09
35806;BME280;21925;44.608;11.580;2022-12-18T00:25:52;102795.34;;;12.49;83.69
35806;BME280;21925;44.608;11.580;2022-12-18T00:28:18;102778.91;;;12.22;82.50
35806;BME280;21925;44.608;11.580;2022-12-18T00:30:45;102763.78;;;11.85;83.04
35806;BME280;21925;44.608;11.580;2022-12-18T00:33:10;102781.56;;;12.14;82.48
35806;BME280;21925;44.608;11.580;2022-12-18T00:35:36;102790.94;;;12.13;82.40
35806;BME280;21925;44.608;11.580;2022-12-18T00:38:02;102783.22;;;12.01;82.12
35806;BME280;21925;44.608;11.580;2022-12-18T00:40:28;102776.22;;;11.69;83.30
35806;BME280;21925;44.608;11.580;2022-12-18T00:42:53;102757.00;;;11.69;83.11
35806;BME280;21925;44.608;11.580;2022-12-18T00:45:27;102811.53;;;11.89;82.29
35806;BME280;21925;44.608;11.580;2022-12-18T00:47:53;102815.28;;;12.19;82.68
35806;BME280;21925;44.608;11.580;2022-12-18T00:50:20;102735.81;;;11.56;80.72
35806;BME280;21925;44.608;11.580;2022-12-18T00:52:46;102805.44;;;11.92;80.92
35806;BME280;21925;44.608;11.580;2022-12-18T00:55:12;102840.66;;;11.90;81.61
35806;BME280;21925;44.608;11.580;2022-12-18T00:57:38;102834.00;;;11.64;82.82
35806;BME280;21925;44.608;11.580;2022-12-18T01:00:07;102823.16;;;11.86;81.83
35806;BME280;21925;44.608;11.580;2022-12-18T01:02:34;102830.38;;;12.08;80.06
35806;BME280;21925;44.608;11.580;2022-12-18T01:04:59;102850.81;;;12.29;79.95
35806;BME280;21925;44.608;11.580;2022-12-18T01:07:25;102824.75;;;12.13;78.89
35806;BME280;21925;44.608;11.580;2022-12-18T01:09:51;102841.25;;;12.13;78.39
35806;BME280;21925;44.608;11.580;2022-12-18T01:12:16;102861.91;;;11.84;78.26
35806;BME280;21925;44.608;11.580;2022-12-18T01:14:42;102851.13;;;12.01;79.45
35806;BME280;21925;44.608;11.580;2022-12-18T01:17:08;102850.22;;;12.05;80.17
35806;BME280;21925;44.608;11.580;2022-12-18T01:19:33;102852.34;;;12.22;77.91
35806;BME280;21925;44.608;11.580;2022-12-18T01:21:59;102836.28;;;12.02;76.70
35806;BME280;21925;44.608;11.580;2022-12-18T01:24:25;102853.16;;;12.22;76.53
35806;BME280;21925;44.608;11.580;2022-12-18T01:26:50;102768.97;;;11.59;74.92
35806;BME280;21925;44.608;11.580;2022-12-18T01:29:16;102841.03;;;12.37;75.24
35806;BME280;21925;44.608;11.580;2022-12-18T01:31:42;102825.38;;;12.10;74.48
35806;BME280;21925;44.608;11.580;2022-12-18T01:34:08;102822.59;;;12.24;73.78
35806;BME280;21925;44.608;11.580;2022-12-18T01:36:37;102830.44;;;12.03;74.35
35806;BME280;21925;44.608;11.580;2022-12-18T01:39:06;102841.97;;;11.92;75.29
35806;BME280;21925;44.608;11.580;2022-12-18T01:41:34;102830.75;;;11.89;75.20
35806;BME280;21925;44.608;11.580;2022-12-18T01:52:36;102858.16;;;11.80;78.17
35806;BME280;21925;44.608;11.580;2022-12-18T01:55:04;102836.06;;;11.72;78.45
35806;BME280;21925;44.608;11.580;2022-12-18T01:57:31;102860.19;;;11.75;77.02
35806;BME280;21925;44.608;11.580;2022-12-18T02:00:01;102844.00;;;11.28;79.63
35806;BME280;21925;44.608;11.580;2022-12-18T02:02:39;102849.59;;;11.55;80.33
35806;BME280;21925;44.608;11.580;2022-12-18T02:05:06;102875.97;;;11.37;80.84
35806;BME280;21925;44.608;11.580;2022-12-18T02:08:51;102879.53;;;11.51;79.85
35806;BME280;21925;44.608;11.580;2022-12-18T02:13:55;102895.31;;;11.46;81.49
35806;BME280;21925;44.608;11.580;2022-12-18T02:19:35;102885.09;;;11.33;80.03
35806;BME280;21925;44.608;11.580;2022-12-18T02:24:54;102903.03;;;11.62;77.51
35806;BME280;21925;44.608;11.580;2022-12-18T02:27:22;102854.44;;;10.94;78.04
35806;BME280;21925;44.608;11.580;2022-12-18T02:29:51;102892.41;;;11.56;78.07
35806;BME280;21925;44.608;11.580;2022-12-18T02:32:24;102901.00;;;11.68;77.24
35806;BME280;21925;44.608;11.580;2022-12-18T02:34:52;102863.63;;;11.53;77.14
35806;BME280;21925;44.608;11.580;2022-12-18T02:37:23;102856.34;;;11.12;76.29
35806;BME280;21925;44.608;11.580;2022-12-18T02:39:53;102925.88;;;11.26;78.28
35806;BME280;21925;44.608;11.580;2022-12-18T02:42:21;102861.84;;;11.12;78.89
35806;BME280;21925;44.608;11.580;2022-12-18T02:44:49;102934.06;;;11.63;77.20
35806;BME280;21925;44.608;11.580;2022-12-18T02:47:21;102932.06;;;11.50;77.33
35806;BME280;21925;44.608;11.580;2022-12-18T03:00:55;102960.63;;;11.49;75.42
35806;BME280;21925;44.608;11.580;2022-12-18T03:03:56;102944.81;;;11.59;73.53
35806;BME280;21925;44.608;11.580;2022-12-18T03:06:26;102971.28;;;11.55;74.27
35806;BME280;21925;44.608;11.580;2022-12-18T03:08:59;102965.78;;;11.37;75.49
35806;BME280;21925;44.608;11.580;2022-12-18T03:11:30;102928.66;;;11.39;75.07
35806;BME280;21925;44.608;11.580;2022-12-18T03:14:20;102970.09;;;11.43;75.13
35806;BME280;21925;44.608;11.580;2022-12-18T03:16:52;102975.56;;;11.61;75.04
35806;BME280;21925;44.608;11.580;2022-12-18T03:19:22;102956.88;;;11.08;74.48
35806;BME280;21925;44.608;11.580;2022-12-18T03:21:56;102943.59;;;11.15;75.43
35806;BME280;21925;44.608;11.580;2022-12-18T03:24:26;102949.72;;;11.12;76.45
35806;BME280;21925;44.608;11.580;2022-12-18T03:26:55;102961.22;;;11.14;74.41
35806;BME280;21925;44.608;11.580;2022-12-18T03:29:35;102966.63;;;11.19;74.48
35806;BME280;21925;44.608;11.580;2022-12-18T03:32:41;102959.50;;;11.18;75.34
35806;BME280;21925;44.608;11.580;2022-12-18T03:35:14;102976.47;;;11.38;75.00
35806;BME280;21925;44.608;11.580;2022-12-18T03:37:43;102952.81;;;11.24;74.18
35806;BME280;21925;44.608;11.580;2022-12-18T03:40:09;102938.09;;;11.52;73.18
35806;BME280;21925;44.608;11.580;2022-12-18T03:42:48;102978.03;;;11.44;73.31
35806;BME280;21925;44.608;11.580;2022-12-18T03:48:00;102976.31;;;11.67;73.67
35806;BME280;21925;44.608;11.580;2022-12-18T03:50:56;102969.34;;;11.37;73.98
35806;BME280;21925;44.608;11.580;2022-12-18T03:56:05;102948.53;;;10.81;77.17
35806;BME280;21925;44.608;11.580;2022-12-18T03:58:37;102970.53;;;10.95;77.69
35806;BME280;21925;44.608;11.580;2022-12-18T04:01:23;102971.53;;;11.22;77.02
35806;BME280;21925;44.608;11.580;2022-12-18T04:03:51;102983.75;;;11.11;76.01
35806;BME280;21925;44.608;11.580;2022-12-18T04:06:19;102961.25;;;11.27;75.92
35806;BME280;21925;44.608;11.580;2022-12-18T04:08:46;102994.00;;;11.61;73.71
35806;BME280;21925;44.608;11.580;2022-12-18T04:11:16;102980.34;;;11.01;72.80
35806;BME280;21925;44.608;11.580;2022-12-18T04:13:43;102946.03;;;10.61;74.22
35806;BME280;21925;44.608;11.580;2022-12-18T04:16:17;102979.28;;;10.78;73.83
35806;BME280;21925;44.608;11.580;2022-12-18T04:18:44;102990.59;;;10.95;73.37
35806;BME280;21925;44.608;11.580;2022-12-18T04:21:12;102990.44;;;11.05;74.37
35806;BME280;21925;44.608;11.580;2022-12-18T04:23:38;102930.41;;;10.80;74.90
35806;BME280;21925;44.608;11.580;2022-12-18T04:26:04;102968.72;;;11.09;74.01
35806;BME280;21925;44.608;11.580;2022-12-18T04:28:59;103008.69;;;11.14;73.65
35806;BME280;21925;44.608;11.580;2022-12-18T04:31:25;102998.72;;;11.00;74.81
35806;BME280;21925;44.608;11.580;2022-12-18T04:33:51;102920.03;;;10.77;75.03
35806;BME280;21925;44.608;11.580;2022-12-18T04:36:18;103030.44;;;11.11;74.24
35806;BME280;21925;44.608;11.580;2022-12-18T04:38:44;103036.28;;;11.05;73.04
35806;BME280;21925;44.608;11.580;2022-12-18T04:41:13;103027.50;;;10.84;73.73
35806;BME280;21925;44.608;11.580;2022-12-18T04:43:40;103039.22;;;10.90;73.72
35806;BME280;21925;44.608;11.580;2022-12-18T04:46:07;103047.72;;;11.11;73.65
35806;BME280;21925;44.608;11.580;2022-12-18T04:48:34;103046.16;;;11.24;73.63
35806;BME280;21925;44.608;11.580;2022-12-18T04:51:01;103035.31;;;10.96;74.00
35806;BME280;21925;44.608;11.580;2022-12-18T04:53:27;103004.66;;;10.89;73.29
35806;BME280;21925;44.608;11.580;2022-12-18T04:56:10;103071.41;;;11.26;73.51
35806;BME280;21925;44.608;11.580;2022-12-18T04:58:38;103075.59;;;11.00;74.19
35806;BME280;21925;44.608;11.580;2022-12-18T05:01:04;103085.44;;;11.06;74.11
35806;BME280;21925;44.608;11.580;2022-12-18T05:03:31;103080.19;;;11.28;73.96
35806;BME280;21925;44.608;11.580;2022-12-18T05:05:56;103057.66;;;10.66;74.09
35806;BME280;21925;44.608;11.580;2022-12-18T05:08:23;103084.09;;;10.80;77.02
35806;BME280;21925;44.608;11.580;2022-12-18T05:10:48;103066.34;;;10.96;75.62
35806;BME280;21925;44.608;11.580;2022-12-18T05:13:14;103041.47;;;10.64;75.26
35806;BME280;21925;44.608;11.580;2022-12-18T05:15:40;103080.72;;;10.88;74.30
35806;BME280;21925;44.608;11.580;2022-12-18T05:18:07;103079.78;;;11.16;74.74
35806;BME280;21925;44.608;11.580;2022-12-18T05:20:33;103061.13;;;10.95;74.96
35806;BME280;21925;44.608;11.580;2022-12-18T05:22:58;103096.00;;;10.94;74.15
35806;BME280;21925;44.608;11.580;2022-12-18T05:25:24;103095.50;;;11.10;73.87
35806;BME280;21925;44.608;11.580;2022-12-18T05:27:50;103086.31;;;11.02;73.87
35806;BME280;21925;44.608;11.580;2022-12-18T05:30:16;103093.56;;;11.34;73.68
35806;BME280;21925;44.608;11.580;2022-12-18T05:32:42;103115.91;;;11.46;73.01
35806;BME280;21925;44.608;11.580;2022-12-18T05:35:09;103119.00;;;11.21;73.87
35806;BME280;21925;44.608;11.580;2022-12-18T05:37:35;103080.41;;;11.31;72.53
35806;BME280;21925;44.608;11.580;2022-12-18T05:40:02;103122.41;;;11.32;73.08
35806;BME280;21925;44.608;11.580;2022-12-18T05:42:28;103105.81;;;11.00;73.40
35806;BME280;21925;44.608;11.580;2022-12-18T05:44:54;103134.13;;;10.96;76.20
35806;BME280;21925;44.608;11.580;2022-12-18T05:47:19;103124.56;;;10.93;75.53
35806;BME280;21925;44.608;11.580;2022-12-18T05:49:45;103142.31;;;11.01;74.84
35806;BME280;21925;44.608;11.580;2022-12-18T05:52:11;103136.88;;;10.72;74.71
35806;BME280;21925;44.608;11.580;2022-12-18T05:54:36;103128.50;;;10.31;75.68
35806;BME280;21925;44.608;11.580;2022-12-18T05:57:02;103137.66;;;10.49;76.56
35806;BME280;21925;44.608;11.580;2022-12-18T05:59:27;103150.50;;;10.54;77.10
35806;BME280;21925;44.608;11.580;2022-12-18T06:01:53;103153.44;;;10.62;77.84
35806;BME280;21925;44.608;11.580;2022-12-18T06:04:19;103143.03;;;10.59;76.34
35806;BME280;21925;44.608;11.580;2022-12-18T06:06:44;103149.88;;;10.33;76.00
35806;BME280;21925;44.608;11.580;2022-12-18T06:09:10;103136.28;;;10.19;76.99
35806;BME280;21925;44.608;11.580;2022-12-18T06:11:36;103154.81;;;10.32;76.96
35806;BME280;21925;44.608;11.580;2022-12-18T06:14:03;103169.41;;;10.22;77.53
35806;BME280;21925;44.608;11.580;2022-12-18T06:16:30;103170.75;;;10.30;77.08
35806;BME280;21925;44.608;11.580;2022-12-18T06:18:59;103181.59;;;10.44;76.21
35806;BME280;21925;44.608;11.580;2022-12-18T06:21:26;103175.00;;;10.45;75.36
35806;BME280;21925;44.608;11.580;2022-12-18T06:23:52;103162.38;;;10.44;74.96
35806;BME280;21925;44.608;11.580;2022-12-18T06:26:18;103169.56;;;10.69;73.11
35806;BME280;21925;44.608;11.580;2022-12-18T06:28:44;103181.88;;;10.71;73.58
35806;BME280;21925;44.608;11.580;2022-12-18T06:31:10;103191.94;;;10.81;73.47
35806;BME280;21925;44.608;11.580;2022-12-18T06:33:36;103197.00;;;10.35;74.79
35806;BME280;21925;44.608;11.580;2022-12-18T06:36:04;103193.25;;;9.83;77.99
35806;BME280;21925;44.608;11.580;2022-12-18T06:38:32;103178.75;;;9.78;79.45
35806;BME280;21925;44.608;11.580;2022-12-18T06:40:58;103204.31;;;10.17;77.49
35806;BME280;21925;44.608;11.580;2022-12-18T06:43:24;103209.84;;;10.07;76.43
35806;BME280;21925;44.608;11.580;2022-12-18T06:45:49;103202.50;;;9.97;78.01
35806;BME280;21925;44.608;11.580;2022-12-18T06:48:20;103219.38;;;10.19;76.39
35806;BME280;21925;44.608;11.580;2022-12-18T06:50:46;103225.72;;;10.10;76.16
35806;BME280;21925;44.608;11.580;2022-12-18T06:53:12;103222.22;;;9.94;77.46
35806;BME280;21925;44.608;11.580;2022-12-18T06:55:38;103225.41;;;9.63;78.14
35806;BME280;21925;44.608;11.580;2022-12-18T06:58:03;103220.44;;;9.75;77.46
35806;BME280;21925;44.608;11.580;2022-12-18T07:00:29;103214.91;;;9.80;77.33
35806;BME280;21925;44.608;11.580;2022-12-18T07:02:55;103216.38;;;9.62;77.00
35806;BME280;21925;44.608;11.580;2022-12-18T07:05:20;103245.19;;;9.50;80.07
35806;BME280;21925;44.608;11.580;2022-12-18T07:07:46;103256.75;;;9.22;80.59
35806;BME280;21925;44.608;11.580;2022-12-18T07:10:11;103248.50;;;9.42;81.21
35806;BME280;21925;44.608;11.580;2022-12-18T07:12:37;103252.47;;;9.79;79.19
35806;BME280;21925;44.608;11.580;2022-12-18T07:15:03;103270.91;;;9.59;78.40
35806;BME280;21925;44.608;11.580;2022-12-18T07:17:29;103270.19;;;9.29;80.58
35806;BME280;21925;44.608;11.580;2022-12-18T07:19:54;103275.94;;;9.27;79.65
35806;BME280;21925;44.608;11.580;2022-12-18T07:22:20;103288.25;;;9.30;81.16
35806;BME280;21925;44.608;11.580;2022-12-18T07:24:46;103271.31;;;9.08;81.65
35806;BME280;21925;44.608;11.580;2022-12-18T07:27:11;103274.31;;;9.06;81.69
35806;BME280;21925;44.608;11.580;2022-12-18T07:29:37;103254.06;;;8.97;81.53
35806;BME280;21925;44.608;11.580;2022-12-18T07:32:03;103294.53;;;9.25;81.14
35806;BME280;21925;44.608;11.580;2022-12-18T07:34:28;103294.28;;;9.22;81.34
35806;BME280;21925;44.608;11.580;2022-12-18T07:36:54;103266.59;;;9.33;80.44
35806;BME280;21925;44.608;11.580;2022-12-18T07:39:20;103267.97;;;9.31;79.89
35806;BME280;21925;44.608;11.580;2022-12-18T07:41:45;103281.34;;;9.47;80.55
35806;BME280;21925;44.608;11.580;2022-12-18T07:44:31;103273.19;;;9.27;81.91
35806;BME280;21925;44.608;11.580;2022-12-18T07:46:57;103293.06;;;9.57;80.79
35806;BME280;21925;44.608;11.580;2022-12-18T07:49:23;103275.28;;;9.55;80.54
35806;BME280;21925;44.608;11.580;2022-12-18T07:51:48;103281.25;;;9.77;79.89
35806;BME280;21925;44.608;11.580;2022-12-18T07:54:14;103281.63;;;10.14;78.99
35806;BME280;21925;44.608;11.580;2022-12-18T07:56:40;103286.81;;;10.20;77.13
35806;BME280;21925;44.608;11.580;2022-12-18T07:59:06;103296.56;;;10.36;76.60
35806;BME280;21925;44.608;11.580;2022-12-18T08:01:32;103279.38;;;10.26;76.49
35806;BME280;21925;44.608;11.580;2022-12-18T08:03:58;103313.91;;;10.27;76.43
35806;BME280;21925;44.608;11.580;2022-12-18T08:06:24;103300.06;;;10.46;76.57
35806;BME280;21925;44.608;11.580;2022-12-18T08:08:54;103323.09;;;10.45;76.26
35806;BME280;21925;44.608;11.580;2022-12-18T08:11:20;103309.94;;;10.47;76.36
35806;BME280;21925;44.608;11.580;2022-12-18T08:13:46;103321.34;;;10.64;75.77
35806;BME280;21925;44.608;11.580;2022-12-18T08:16:12;103303.84;;;10.55;75.44
35806;BME280;21925;44.608;11.580;2022-12-18T08:18:38;103318.53;;;11.03;73.75
35806;BME280;21925;44.608;11.580;2022-12-18T08:21:31;103282.19;;;10.54;71.82
35806;BME280;21925;44.608;11.580;2022-12-18T08:23:59;103339.41;;;10.70;72.48
35806;BME280;21925;44.608;11.580;2022-12-18T08:26:27;103325.25;;;10.87;71.95
35806;BME280;21925;44.608;11.580;2022-12-18T08:28:55;103334.56;;;10.91;71.82
35806;BME280;21925;44.608;11.580;2022-12-18T08:31:22;103344.22;;;10.88;72.06
35806;BME280;21925;44.608;11.580;2022-12-18T08:33:49;103344.88;;;11.04;71.18
35806;BME280;21925;44.608;11.580;2022-12-18T08:36:15;103348.25;;;10.96;70.57
35806;BME280;21925;44.608;11.580;2022-12-18T08:38:41;103367.09;;;11.07;69.25
35806;BME280;21925;44.608;11.580;2022-12-18T08:41:09;103353.28;;;11.17;68.68
35806;BME280;21925;44.608;11.580;2022-12-18T08:43:35;103373.53;;;11.26;67.40
35806;BME280;21925;44.608;11.580;2022-12-18T08:46:21;103380.66;;;11.27;67.62
35806;BME280;21925;44.608;11.580;2022-12-18T08:48:48;103381.00;;;11.54;67.05
35806;BME280;21925;44.608;11.580;2022-12-18T08:51:16;103379.19;;;11.39;67.23
35806;BME280;21925;44.608;11.580;2022-12-18T08:53:43;103383.75;;;11.49;66.83
35806;BME280;21925;44.608;11.580;2022-12-18T08:56:10;103364.44;;;11.30;66.86
35806;BME280;21925;44.608;11.580;2022-12-18T08:58:35;103397.63;;;11.34;67.00
35806;BME280;21925;44.608;11.580;2022-12-18T09:01:05;103399.84;;;11.32;67.21
35806;BME280;21925;44.608;11.580;2022-12-18T09:03:31;103392.75;;;11.26;67.89
35806;BME280;21925;44.608;11.580;2022-12-18T09:05:57;103394.31;;;11.37;68.86
35806;BME280;21925;44.608;11.580;2022-12-18T09:08:23;103360.66;;;11.21;67.44
35806;BME280;21925;44.608;11.580;2022-12-18T09:10:51;103415.53;;;11.88;65.69
35806;BME280;21925;44.608;11.580;2022-12-18T09:13:17;103399.44;;;11.48;64.48
35806;BME280;21925;44.608;11.580;2022-12-18T09:15:45;103415.31;;;11.56;64.93
35806;BME280;21925;44.608;11.580;2022-12-18T09:18:12;103426.59;;;11.55;64.81
35806;BME280;21925;44.608;11.580;2022-12-18T09:20:38;103402.19;;;12.00;65.26
35806;BME280;21925;44.608;11.580;2022-12-18T09:23:04;103432.22;;;12.20;65.77
35806;BME280;21925;44.608;11.580;2022-12-18T09:25:31;103410.38;;;11.82;64.22
35806;BME280;21925;44.608;11.580;2022-12-18T09:28:15;103431.78;;;12.31;63.60
35806;BME280;21925;44.608;11.580;2022-12-18T09:30:44;103440.06;;;11.80;63.22
35806;BME280;21925;44.608;11.580;2022-12-18T09:33:10;103431.47;;;11.91;63.89
35806;BME280;21925;44.608;11.580;2022-12-18T09:35:37;103433.97;;;12.34;63.62
35806;BME280;21925;44.608;11.580;2022-12-18T09:38:04;103437.19;;;12.18;63.48
35806;BME280;21925;44.608;11.580;2022-12-18T09:40:35;103433.66;;;12.12;64.07
35806;BME280;21925;44.608;11.580;2022-12-18T09:43:04;103420.56;;;12.28;63.16
35806;BME280;21925;44.608;11.580;2022-12-18T09:45:39;103404.75;;;12.38;63.16
35806;BME280;21925;44.608;11.580;2022-12-18T09:48:10;103425.38;;;12.17;62.09
35806;BME280;21925;44.608;11.580;2022-12-18T09:50:41;103322.53;;;12.13;63.52
35806;BME280;21925;44.608;11.580;2022-12-18T09:53:13;103426.63;;;12.85;61.84
35806;BME280;21925;44.608;11.580;2022-12-18T09:55:43;103417.91;;;12.41;62.38
35806;BME280;21925;44.608;11.580;2022-12-18T09:58:29;103420.72;;;13.15;63.37
35806;BME280;21925;44.608;11.580;2022-12-18T10:00:56;103418.25;;;12.76;63.34
35806;BME280;21925;44.608;11.580;2022-12-18T10:03:22;103385.06;;;12.86;62.50
35806;BME280;21925;44.608;11.580;2022-12-18T10:08:46;103396.69;;;13.34;62.61
35806;BME280;21925;44.608;11.580;2022-12-18T10:11:40;103391.63;;;13.41;62.05
35806;BME280;21925;44.608;11.580;2022-12-18T10:14:30;103391.84;;;13.57;61.42
35806;BME280;21925;44.608;11.580;2022-12-18T10:20:02;103383.09;;;13.24;61.74
35806;BME280;21925;44.608;11.580;2022-12-18T10:22:54;103391.66;;;13.67;61.68
35806;BME280;21925;44.608;11.580;2022-12-18T10:25:25;103388.69;;;13.19;62.99
35806;BME280;21925;44.608;11.580;2022-12-18T10:27:57;103394.53;;;13.62;63.41
35806;BME280;21925;44.608;11.580;2022-12-18T10:30:24;103384.94;;;14.00;64.50
35806;BME280;21925;44.608;11.580;2022-12-18T10:32:51;103381.38;;;14.00;63.26
35806;BME280;21925;44.608;11.580;2022-12-18T10:35:22;103382.69;;;14.02;64.14
35806;BME280;21925;44.608;11.580;2022-12-18T10:40:29;103378.66;;;14.13;62.77
35806;BME280;21925;44.608;11.580;2022-12-18T10:43:13;103349.19;;;13.95;63.57
35806;BME280;21925;44.608;11.580;2022-12-18T10:45:40;103371.47;;;13.85;61.72
35806;BME280;21925;44.608;11.580;2022-12-18T10:48:21;103346.53;;;14.17;61.66
35806;BME280;21925;44.608;11.580;2022-12-18T10:50:49;103339.66;;;14.41;60.82
35806;BME280;21925;44.608;11.580;2022-12-18T10:53:28;103366.97;;;14.16;60.94
35806;BME280;21925;44.608;11.580;2022-12-18T10:55:56;103360.59;;;14.42;61.46
35806;BME280;21925;44.608;11.580;2022-12-18T10:58:34;103359.47;;;14.79;61.00
35806;BME280;21925;44.608;11.580;2022-12-18T11:01:11;103361.47;;;14.65;62.12
35806;BME280;21925;44.608;11.580;2022-12-18T11:08:35;103358.25;;;15.07;61.78
35806;BME280;21925;44.608;11.580;2022-12-18T11:11:01;103355.94;;;14.65;61.33
35806;BME280;21925;44.608;11.580;2022-12-18T11:13:29;103370.53;;;14.79;60.37
35806;BME280;21925;44.608;11.580;2022-12-18T11:15:56;103354.97;;;14.83;60.75
35806;BME280;21925;44.608;11.580;2022-12-18T11:18:32;103371.34;;;15.23;61.73
35806;BME280;21925;44.608;11.580;2022-12-18T11:21:05;103356.13;;;14.68;60.97
35806;BME280;21925;44.608;11.580;2022-12-18T11:23:33;103376.69;;;14.98;60.67
35806;BME280;21925;44.608;11.580;2022-12-18T11:26:01;103354.97;;;14.83;60.47
35806;BME280;21925;44.608;11.580;2022-12-18T11:28:35;103376.84;;;14.93;60.36
35806;BME280;21925;44.608;11.580;2022-12-18T11:31:21;103374.06;;;15.36;60.03
35806;BME280;21925;44.608;11.580;2022-12-18T11:34:27;103371.44;;;15.10;60.99
35806;BME280;21925;44.608;11.580;2022-12-18T11:36:46;103359.94;;;14.94;61.10
35806;BME280;21925;44.608;11.580;2022-12-18T11:39:37;103373.81;;;15.03;60.38
35806;BME280;21925;44.608;11.580;2022-12-18T11:42:21;103378.31;;;15.20;60.44
35806;BME280;21925;44.608;11.580;2022-12-18T11:44:57;103371.81;;;15.16;62.72
35806;BME280;21925;44.608;11.580;2022-12-18T11:47:49;103363.69;;;15.20;64.02
35806;BME280;21925;44.608;11.580;2022-12-18T11:50:21;103366.94;;;14.78;62.35
35806;BME280;21925;44.608;11.580;2022-12-18T11:52:49;103343.31;;;14.86;62.82
35806;BME280;21925;44.608;11.580;2022-12-18T12:00:30;103346.25;;;15.11;62.15
35806;BME280;21925;44.608;11.580;2022-12-18T12:08:47;103354.72;;;15.36;61.12
35806;BME280;21925;44.608;11.580;2022-12-18T12:17:16;103352.31;;;15.21;62.90
35806;BME280;21925;44.608;11.580;2022-12-18T12:25:28;103350.25;;;14.83;63.96
35806;BME280;21925;44.608;11.580;2022-12-18T12:30:39;103336.88;;;14.99;64.60
35806;BME280;21925;44.608;11.580;2022-12-18T12:36:18;103341.13;;;15.87;63.46
35806;BME280;21925;44.608;11.580;2022-12-18T12:38:53;103347.44;;;15.40;63.28
35806;BME280;21925;44.608;11.580;2022-12-18T12:41:23;103342.28;;;15.04;65.46
35806;BME280;21925;44.608;11.580;2022-12-18T12:44:15;103342.47;;;14.85;64.66
35806;BME280;21925;44.608;11.580;2022-12-18T12:46:43;103349.50;;;14.91;66.03
35806;BME280;21925;44.608;11.580;2022-12-18T12:49:15;103355.84;;;14.92;65.07
35806;BME280;21925;44.608;11.580;2022-12-18T12:51:48;103352.91;;;14.88;65.60
35806;BME280;21925;44.608;11.580;2022-12-18T12:54:21;103358.66;;;15.00;64.83
35806;BME280;21925;44.608;11.580;2022-12-18T12:57:23;103359.00;;;14.99;64.30
35806;BME280;21925;44.608;11.580;2022-12-18T13:00:00;103357.72;;;14.83;64.38
35806;BME280;21925;44.608;11.580;2022-12-18T13:05:34;103350.47;;;15.30;65.71
35806;BME280;21925;44.608;11.580;2022-12-18T13:13:07;103337.63;;;14.69;67.05
35806;BME280;21925;44.608;11.580;2022-12-18T13:16:03;103337.13;;;14.89;64.24
35806;BME280;21925;44.608;11.580;2022-12-18T13:18:29;103356.69;;;15.14;66.87
35806;BME280;21925;44.608;11.580;2022-12-18T13:25:53;103349.75;;;15.03;62.99
35806;BME280;21925;44.608;11.580;2022-12-18T13:30:57;103344.78;;;15.13;65.33
35806;BME280;21925;44.608;11.580;2022-12-18T13:38:40;103360.81;;;15.03;64.08
35806;BME280;21925;44.608;11.580;2022-12-18T13:43:51;103365.78;;;15.14;64.09
35806;BME280;21925;44.608;11.580;2022-12-18T13:49:05;103365.00;;;15.66;63.82
35806;BME280;21925;44.608;11.580;2022-12-18T13:51:33;103356.72;;;15.44;62.99
35806;BME280;21925;44.608;11.580;2022-12-18T13:54:00;103363.47;;;15.30;63.41
35806;BME280;21925;44.608;11.580;2022-12-18T13:56:29;103368.19;;;15.60;62.81
35806;BME280;21925;44.608;11.580;2022-12-18T14:01:54;103364.69;;;15.76;62.85
35806;BME280;21925;44.608;11.580;2022-12-18T14:04:34;103357.25;;;15.55;63.88
35806;BME280;21925;44.608;11.580;2022-12-18T14:09:47;103347.72;;;15.69;61.06
35806;BME280;21925;44.608;11.580;2022-12-18T14:12:31;103350.72;;;15.42;61.75
35806;BME280;21925;44.608;11.580;2022-12-18T14:17:57;103339.41;;;16.08;60.04
35806;BME280;21925;44.608;11.580;2022-12-18T14:20:29;103354.88;;;15.31;61.37
35806;BME280;21925;44.608;11.580;2022-12-18T14:22:56;103329.66;;;15.63;63.76
35806;BME280;21925;44.608;11.580;2022-12-18T14:25:25;103331.78;;;15.66;61.18
35806;BME280;21925;44.608;11.580;2022-12-18T14:28:04;103350.19;;;16.18;60.60
35806;BME280;21925;44.608;11.580;2022-12-18T14:30:39;103350.13;;;15.93;59.48
35806;BME280;21925;44.608;11.580;2022-12-18T14:33:06;103358.44;;;16.01;61.16
35806;BME280;21925;44.608;11.580;2022-12-18T14:35:36;103357.63;;;15.62;62.40
35806;BME280;21925;44.608;11.580;2022-12-18T14:40:52;103368.84;;;15.13;62.27
35806;BME280;21925;44.608;11.580;2022-12-18T14:43:18;103365.25;;;15.56;62.53
35806;BME280;21925;44.608;11.580;2022-12-18T14:45:44;103358.72;;;15.52;62.00
35806;BME280;21925;44.608;11.580;2022-12-18T14:50:37;103332.34;;;15.03;63.94
35806;BME280;21925;44.608;11.580;2022-12-18T14:53:03;103373.31;;;15.75;62.04